Time;durP1;ratioP1;P1;durP2;ratioP2;P2;SDS_P1;SDS_P2;PMS_P1;PMS_P2;Temp;Humidity;BMP_temperature;BMP_pressure;BME280_temperature;BME280_humidity;BME280_pressure;Samples;Min_cycle;Max_cycle;Signal;HPM_P1;HPM_P2
2022/01/11 00:00:01;;;;;;;;;;;21.10;39.30;;;;;;683475;29;800;-88
2022/01/11 00:00:22;;;;;;;;;;;21.10;39.20;;;;;;683410;28;894;-86
2022/01/11 00:00:45;;;;;;;;;;;21.10;39.20;;;;;;683716;28;922;-87
2022/01/11 00:01:11;;;;;;;;;;;21.10;39.30;;;;;;683501;28;886;-86
2022/01/11 00:01:32;;;;;;;;;;;21.20;39.30;;;;;;683418;28;874;-88
2022/01/11 00:01:52;;;;;;;;;;;21.20;39.30;;;;;;683424;28;797;-87
2022/01/11 00:02:16;;;;;;;;;;;21.10;39.20;;;;;;683456;28;883;-86
2022/01/11 00:02:41;;;;;;;;;;;21.10;39.20;;;;;;683455;28;1911;-87
2022/01/11 00:03:02;;;;;;;;;;;21.10;39.10;;;;;;685846;28;886;-87
2022/01/11 00:03:23;;;;;;;;;;;21.20;39.20;;;;;;683104;29;1161;-87
2022/01/11 00:03:44;;;;;;;;;;;21.10;39.20;;;;;;683261;29;977;-88
2022/01/11 00:04:05;;;;;;;;;;;21.10;39.10;;;;;;683164;29;955;-85
2022/01/11 00:04:29;;;;;;;;;;;21.10;39.20;;;;;;683101;28;938;-85
2022/01/11 00:04:49;;;;;;;;;;;21.10;39.20;;;;;;683198;29;835;-88
2022/01/11 00:06:16;;;;;;;;;;;21.10;39.10;;;;;;683431;28;847;-88
2022/01/11 00:06:44;;;;;;;;;;;21.10;39.10;;;;;;683524;28;807;-87
2022/01/11 00:07:07;;;;;;;;;;;21.10;40.30;;;;;;683345;28;891;-87
2022/01/11 00:07:30;;;;;;;;;;;21.20;39.20;;;;;;685835;28;878;-87
2022/01/11 00:07:52;;;;;;;;;;;21.10;39.20;;;;;;685714;28;1208;-87
2022/01/11 00:08:14;;;;;;;;;;;21.10;39.20;;;;;;683099;28;1298;-84
2022/01/11 00:08:36;;;;;;;;;;;21.10;39.20;;;;;;683325;28;1209;-87
2022/01/11 00:09:01;;;;;;;;;;;21.20;39.20;;;;;;683047;28;855;-84
2022/01/11 00:09:50;;;;;;;;;;;21.10;39.10;;;;;;683168;29;756;-84
2022/01/11 00:10:19;;;;;;;;;;;21.20;39.20;;;;;;683266;29;847;-85
2022/01/11 00:10:49;;;;;;;;;;;21.10;39.20;;;;;;683220;29;850;-87
2022/01/11 00:11:10;;;;;;;;;;;21.20;39.20;;;;;;683415;28;885;-87
2022/01/11 00:11:30;;;;;;;;;;;21.20;39.20;;;;;;683377;28;823;-83
2022/01/11 00:11:51;;;;;;;;;;;21.20;39.30;;;;;;683277;28;906;-88
2022/01/11 00:12:11;;;;;;;;;;;21.10;39.20;;;;;;683259;28;957;-86
2022/01/11 00:12:32;;;;;;;;;;;21.20;39.20;;;;;;685791;28;835;-87
2022/01/11 00:12:53;;;;;;;;;;;21.10;39.10;;;;;;685767;28;902;-86
2022/01/11 00:13:14;;;;;;;;;;;21.20;39.20;;;;;;683088;29;1637;-87
2022/01/11 00:13:37;;;;;;;;;;;21.10;39.10;;;;;;683075;29;831;-84
2022/01/11 00:13:57;;;;;;;;;;;21.20;39.30;;;;;;683293;29;812;-87
2022/01/11 00:14:18;;;;;;;;;;;21.10;39.20;;;;;;683056;29;907;-87
2022/01/11 00:14:39;;;;;;;;;;;21.20;39.20;;;;;;683197;29;831;-87
2022/01/11 00:14:59;;;;;;;;;;;21.10;39.10;;;;;;683091;29;816;-88
2022/01/11 00:15:20;;;;;;;;;;;21.10;39.20;;;;;;683330;29;886;-84
2022/01/11 00:15:40;;;;;;;;;;;21.10;39.10;;;;;;685889;28;808;-85
2022/01/11 00:16:01;;;;;;;;;;;21.10;39.20;;;;;;685717;28;922;-86
2022/01/11 00:16:22;;;;;;;;;;;21.10;39.20;;;;;;685667;28;836;-85
2022/01/11 00:16:42;;;;;;;;;;;21.20;39.20;;;;;;685948;28;835;-87
2022/01/11 00:17:03;;;;;;;;;;;21.10;39.10;;;;;;683033;29;866;-84
2022/01/11 00:17:24;;;;;;;;;;;21.10;39.20;;;;;;682923;29;955;-85
2022/01/11 00:17:44;;;;;;;;;;;21.20;39.30;;;;;;683155;28;879;-86
2022/01/11 00:18:05;;;;;;;;;;;21.10;39.10;;;;;;683123;29;799;-85
2022/01/11 00:18:26;;;;;;;;;;;21.10;39.10;;;;;;683043;29;887;-86
2022/01/11 00:18:46;;;;;;;;;;;21.10;39.10;;;;;;683112;29;824;-86
2022/01/11 00:19:07;;;;;;;;;;;21.10;39.20;;;;;;685730;28;823;-84
2022/01/11 00:19:28;;;;;;;;;;;21.20;39.20;;;;;;685794;28;780;-86
2022/01/11 00:19:49;;;;;;;;;;;21.10;39.20;;;;;;685708;28;854;-86
2022/01/11 00:20:13;;;;;;;;;;;21.20;39.20;;;;;;685833;28;847;-84
2022/01/11 00:20:35;;;;;;;;;;;21.20;39.20;;;;;;685932;28;1254;-87
2022/01/11 00:20:56;;;;;;;;;;;21.20;39.20;;;;;;685773;28;890;-86
2022/01/11 00:21:17;;;;;;;;;;;21.20;39.30;;;;;;685674;28;867;-87
2022/01/11 00:21:45;;;;;;;;;;;21.20;39.30;;;;;;685842;28;886;-85
2022/01/11 00:22:14;;;;;;;;;;;21.10;39.20;;;;;;683054;28;1331;-84
2022/01/11 00:22:48;;;;;;;;;;;21.20;39.20;;;;;;683002;29;1895;-81
2022/01/11 00:24:49;;;;;;;;;;;21.10;39.20;;;;;;685780;28;822;-88
2022/01/11 00:25:10;;;;;;;;;;;21.20;39.30;;;;;;686021;28;1607;-86
2022/01/11 00:25:32;;;;;;;;;;;21.10;39.20;;;;;;685629;28;910;-85
2022/01/11 00:25:53;;;;;;;;;;;21.20;39.30;;;;;;685703;28;856;-84
2022/01/11 00:26:15;;;;;;;;;;;21.20;39.30;;;;;;685863;28;922;-83
2022/01/11 00:26:36;;;;;;;;;;;21.20;39.30;;;;;;683599;28;953;-87
2022/01/11 00:26:57;;;;;;;;;;;21.20;39.40;;;;;;682944;28;934;-86
2022/01/11 00:27:18;;;;;;;;;;;21.10;39.40;;;;;;683063;29;808;-86
2022/01/11 00:27:39;;;;;;;;;;;21.10;39.40;;;;;;683140;29;824;-85
2022/01/11 00:28:00;;;;;;;;;;;21.10;39.50;;;;;;683065;29;820;-85
2022/01/11 00:28:21;;;;;;;;;;;21.10;39.50;;;;;;680775;28;1256;-87
2022/01/11 00:28:42;;;;;;;;;;;21.10;39.50;;;;;;683178;29;884;-84
2022/01/11 00:29:03;;;;;;;;;;;21.10;39.50;;;;;;683049;29;955;-86
2022/01/11 00:29:23;;;;;;;;;;;21.10;39.50;;;;;;683010;29;878;-88
2022/01/11 00:29:48;;;;;;;;;;;21.10;39.60;;;;;;683128;29;849;-85
2022/01/11 00:30:09;;;;;;;;;;;21.10;39.50;;;;;;681366;29;970;-87
2022/01/11 00:30:33;;;;;;;;;;;21.10;39.60;;;;;;683033;29;894;-86
2022/01/11 00:30:54;;;;;;;;;;;21.10;39.60;;;;;;683036;29;847;-85
2022/01/11 00:31:15;;;;;;;;;;;21.10;39.60;;;;;;683117;29;819;-86
2022/01/11 00:31:36;;;;;;;;;;;21.10;39.60;;;;;;682966;29;844;-80
2022/01/11 00:32:01;;;;;;;;;;;21.10;39.60;;;;;;683100;29;883;-86
2022/01/11 00:32:35;;;;;;;;;;;21.10;39.70;;;;;;683201;28;867;-84
2022/01/11 00:32:58;;;;;;;;;;;21.10;39.60;;;;;;683270;28;836;-87
2022/01/11 00:33:24;;;;;;;;;;;21.10;39.70;;;;;;683198;28;902;-87
2022/01/11 00:33:46;;;;;;;;;;;21.10;39.60;;;;;;683397;28;1121;-86
2022/01/11 00:34:08;;;;;;;;;;;21.10;39.60;;;;;;683450;28;886;-86
2022/01/11 00:34:38;;;;;;;;;;;21.00;39.60;;;;;;683252;28;863;-87
2022/01/11 00:34:59;;;;;;;;;;;21.10;39.80;;;;;;683233;28;872;-88
2022/01/11 00:35:27;;;;;;;;;;;21.00;39.60;;;;;;685635;28;1267;-84
2022/01/11 00:35:59;;;;;;;;;;;21.00;39.60;;;;;;685625;28;823;-86
2022/01/11 00:36:19;;;;;;;;;;;21.00;40.80;;;;;;685639;28;863;-88
2022/01/11 00:36:42;;;;;;;;;;;21.00;39.70;;;;;;685835;28;902;-87
2022/01/11 00:37:02;;;;;;;;;;;21.00;39.70;;;;;;685516;28;831;-87
2022/01/11 00:37:23;;;;;;;;;;;21.00;39.80;;;;;;683219;28;843;-86
2022/01/11 00:37:44;;;;;;;;;;;21.00;39.80;;;;;;683277;28;927;-86
2022/01/11 00:38:05;;;;;;;;;;;21.00;39.80;;;;;;682859;28;1417;-85
2022/01/11 00:38:35;;;;;;;;;;;21.00;39.80;;;;;;683066;29;804;-85
2022/01/11 00:38:56;;;;;;;;;;;21.00;39.80;;;;;;683063;29;871;-86
2022/01/11 00:39:16;;;;;;;;;;;21.00;39.80;;;;;;683044;29;907;-86
2022/01/11 00:39:37;;;;;;;;;;;21.00;39.80;;;;;;683347;29;855;-84
2022/01/11 00:39:59;;;;;;;;;;;21.00;39.70;;;;;;682040;28;995;-85
2022/01/11 00:40:20;;;;;;;;;;;21.00;39.80;;;;;;683083;28;938;-88
2022/01/11 00:40:46;;;;;;;;;;;21.00;39.80;;;;;;683198;29;815;-88
2022/01/11 00:41:08;;;;;;;;;;;21.00;39.80;;;;;;683110;29;927;-86
2022/01/11 00:41:29;;;;;;;;;;;21.00;39.80;;;;;;683018;29;876;-86
2022/01/11 00:41:50;;;;;;;;;;;21.00;39.80;;;;;;683162;29;899;-87
2022/01/11 00:42:11;;;;;;;;;;;21.00;39.80;;;;;;683120;28;1070;-86
2022/01/11 00:42:32;;;;;;;;;;;21.00;39.80;;;;;;683176;29;1951;-87
2022/01/11 00:42:53;;;;;;;;;;;21.00;39.80;;;;;;682850;29;1323;-87
2022/01/11 00:43:15;;;;;;;;;;;21.00;39.80;;;;;;682939;29;1431;-85
2022/01/11 00:43:36;;;;;;;;;;;21.00;39.80;;;;;;682991;29;965;-84
2022/01/11 00:43:56;;;;;;;;;;;21.00;39.80;;;;;;682936;29;863;-87
2022/01/11 00:44:17;;;;;;;;;;;21.00;39.80;;;;;;682956;28;911;-86
2022/01/11 00:44:37;;;;;;;;;;;21.00;39.80;;;;;;683174;29;512;-87
2022/01/11 00:44:58;;;;;;;;;;;21.00;39.80;;;;;;682874;29;867;-87
2022/01/11 00:45:19;;;;;;;;;;;21.00;39.80;;;;;;682389;28;1425;-87
2022/01/11 00:45:39;;;;;;;;;;;21.00;39.80;;;;;;680354;28;871;-86
2022/01/11 00:46:00;;;;;;;;;;;21.00;39.80;;;;;;680422;29;879;-87
2022/01/11 00:46:20;;;;;;;;;;;21.00;39.80;;;;;;680362;29;863;-88
2022/01/11 00:46:41;;;;;;;;;;;21.00;39.80;;;;;;680724;29;934;-87
2022/01/11 00:47:02;;;;;;;;;;;21.00;39.80;;;;;;682979;28;779;-86
2022/01/11 00:47:22;;;;;;;;;;;21.00;39.70;;;;;;683000;29;891;-87
2022/01/11 00:47:43;;;;;;;;;;;21.00;39.80;;;;;;683251;28;867;-88
2022/01/11 00:48:04;;;;;;;;;;;21.00;39.80;;;;;;683132;28;942;-87
2022/01/11 00:48:25;;;;;;;;;;;21.00;39.80;;;;;;683170;29;943;-87
2022/01/11 00:48:46;;;;;;;;;;;20.90;39.80;;;;;;683183;28;926;-84
2022/01/11 00:49:06;;;;;;;;;;;21.00;39.80;;;;;;683303;29;824;-87
2022/01/11 00:49:27;;;;;;;;;;;20.90;41.00;;;;;;683206;29;796;-86
2022/01/11 00:49:50;;;;;;;;;;;21.00;39.80;;;;;;685606;28;982;-89
2022/01/11 00:50:11;;;;;;;;;;;21.00;39.80;;;;;;685758;28;503;-86
2022/01/11 00:50:33;;;;;;;;;;;20.90;39.80;;;;;;685717;28;887;-86
2022/01/11 00:50:53;;;;;;;;;;;21.00;39.90;;;;;;682842;28;1210;-83
2022/01/11 00:51:14;;;;;;;;;;;20.90;39.80;;;;;;683032;29;867;-87
2022/01/11 00:51:35;;;;;;;;;;;20.90;39.80;;;;;;683040;29;923;-85
2022/01/11 00:51:55;;;;;;;;;;;20.90;39.80;;;;;;683050;29;819;-85
2022/01/11 00:52:16;;;;;;;;;;;20.90;39.90;;;;;;683032;29;899;-82
2022/01/11 00:52:36;;;;;;;;;;;20.90;39.80;;;;;;683224;29;965;-84
2022/01/11 00:52:57;;;;;;;;;;;21.00;39.80;;;;;;683163;29;907;-86
2022/01/11 00:53:18;;;;;;;;;;;21.00;39.80;;;;;;683360;28;891;-87
2022/01/11 00:53:40;;;;;;;;;;;20.90;39.80;;;;;;683344;28;859;-85
2022/01/11 00:54:00;;;;;;;;;;;20.90;39.80;;;;;;683220;29;863;-88
2022/01/11 00:54:21;;;;;;;;;;;21.00;39.90;;;;;;683153;28;1342;-87
2022/01/11 00:54:41;;;;;;;;;;;20.90;39.90;;;;;;683244;28;918;-88
2022/01/11 00:55:02;;;;;;;;;;;20.90;39.80;;;;;;683230;28;850;-87
2022/01/11 00:55:23;;;;;;;;;;;20.90;39.80;;;;;;683232;29;820;-82
2022/01/11 00:55:44;;;;;;;;;;;20.90;39.80;;;;;;683286;28;917;-87
2022/01/11 00:56:05;;;;;;;;;;;20.90;39.80;;;;;;683216;28;938;-87
2022/01/11 00:56:25;;;;;;;;;;;20.90;39.80;;;;;;683271;28;890;-84
2022/01/11 00:56:46;;;;;;;;;;;20.90;39.80;;;;;;683193;29;1060;-82
2022/01/11 00:57:06;;;;;;;;;;;20.90;39.80;;;;;;683343;29;871;-88
2022/01/11 00:57:27;;;;;;;;;;;20.90;39.80;;;;;;683189;28;958;-87
2022/01/11 00:57:47;;;;;;;;;;;20.90;39.80;;;;;;683156;29;851;-88
2022/01/11 00:58:08;;;;;;;;;;;20.90;39.80;;;;;;683310;28;931;-87
2022/01/11 00:58:28;;;;;;;;;;;20.90;39.80;;;;;;683204;28;943;-86
2022/01/11 00:58:49;;;;;;;;;;;20.90;39.80;;;;;;683154;28;955;-88
2022/01/11 00:59:10;;;;;;;;;;;20.90;39.80;;;;;;683313;29;866;-83
2022/01/11 00:59:30;;;;;;;;;;;20.90;39.80;;;;;;683243;28;926;-87
2022/01/11 00:59:52;;;;;;;;;;;20.90;39.80;;;;;;683313;29;878;-87
2022/01/11 01:00:13;;;;;;;;;;;20.90;39.80;;;;;;683252;28;905;-88
2022/01/11 01:00:35;;;;;;;;;;;20.90;39.80;;;;;;683249;28;744;-88
2022/01/11 01:00:55;;;;;;;;;;;20.90;39.80;;;;;;683156;28;930;-87
2022/01/11 01:01:16;;;;;;;;;;;20.90;39.80;;;;;;683129;28;1017;-85
2022/01/11 01:01:37;;;;;;;;;;;20.90;39.80;;;;;;683339;29;862;-87
2022/01/11 01:01:58;;;;;;;;;;;20.90;39.80;;;;;;683299;28;831;-88
2022/01/11 01:02:19;;;;;;;;;;;20.90;39.80;;;;;;683198;28;786;-89
2022/01/11 01:02:39;;;;;;;;;;;20.90;39.80;;;;;;683146;29;1945;-88
2022/01/11 01:03:00;;;;;;;;;;;20.90;39.80;;;;;;682831;29;1568;-87
2022/01/11 01:03:21;;;;;;;;;;;20.90;39.80;;;;;;683025;29;870;-88
2022/01/11 01:03:42;;;;;;;;;;;20.90;39.90;;;;;;683083;29;985;-88
2022/01/11 01:04:02;;;;;;;;;;;20.90;39.80;;;;;;682927;29;876;-86
2022/01/11 01:04:23;;;;;;;;;;;20.90;39.90;;;;;;682991;29;795;-88
2022/01/11 01:04:43;;;;;;;;;;;20.90;40.00;;;;;;680797;29;847;-88
2022/01/11 01:05:04;;;;;;;;;;;20.90;39.90;;;;;;682962;29;897;-86
2022/01/11 01:05:26;;;;;;;;;;;20.90;39.90;;;;;;683041;29;807;-84
2022/01/11 01:05:47;;;;;;;;;;;20.90;39.90;;;;;;683009;29;965;-85
2022/01/11 01:06:07;;;;;;;;;;;20.90;39.90;;;;;;683097;29;791;-86
2022/01/11 01:06:28;;;;;;;;;;;20.90;39.90;;;;;;683093;29;855;-87
2022/01/11 01:06:48;;;;;;;;;;;20.90;39.90;;;;;;683231;29;886;-88
2022/01/11 01:07:09;;;;;;;;;;;20.90;39.90;;;;;;683257;29;803;-88
2022/01/11 01:07:29;;;;;;;;;;;20.90;40.00;;;;;;683173;28;811;-87
2022/01/11 01:07:50;;;;;;;;;;;20.90;40.00;;;;;;683192;29;918;-85
2022/01/11 01:08:11;;;;;;;;;;;20.90;40.00;;;;;;683199;28;882;-87
2022/01/11 01:08:32;;;;;;;;;;;20.90;40.00;;;;;;683221;28;787;-84
2022/01/11 01:08:52;;;;;;;;;;;20.90;40.00;;;;;;683277;29;827;-86
2022/01/11 01:09:13;;;;;;;;;;;20.90;40.00;;;;;;683297;29;886;-87
2022/01/11 01:09:54;;;;;;;;;;;20.90;39.90;;;;;;683223;28;874;-85
2022/01/11 01:10:46;;;;;;;;;;;20.90;39.90;;;;;;683089;29;982;-88
2022/01/11 01:11:07;;;;;;;;;;;20.90;39.90;;;;;;683084;29;893;-88
2022/01/11 01:11:27;;;;;;;;;;;20.90;39.90;;;;;;682945;29;831;-82
2022/01/11 01:11:48;;;;;;;;;;;20.90;39.90;;;;;;682990;29;799;-88
2022/01/11 01:12:08;;;;;;;;;;;20.90;40.00;;;;;;683080;29;969;-88
2022/01/11 01:12:29;;;;;;;;;;;20.90;39.90;;;;;;683130;29;883;-86
2022/01/11 01:12:51;;;;;;;;;;;20.90;39.90;;;;;;683222;29;803;-84
2022/01/11 01:13:15;;;;;;;;;;;20.90;39.90;;;;;;682934;29;929;-85
2022/01/11 01:13:36;;;;;;;;;;;20.90;40.00;;;;;;682918;28;869;-85
2022/01/11 01:13:56;;;;;;;;;;;20.90;40.00;;;;;;683061;29;910;-87
2022/01/11 01:14:17;;;;;;;;;;;20.90;39.90;;;;;;680251;29;1531;-81
2022/01/11 01:14:38;;;;;;;;;;;20.90;39.90;;;;;;680371;29;1427;-88
2022/01/11 01:14:59;;;;;;;;;;;20.90;39.90;;;;;;680947;29;938;-87
2022/01/11 01:15:20;;;;;;;;;;;20.90;39.90;;;;;;682932;29;804;-84
2022/01/11 01:15:42;;;;;;;;;;;20.90;39.80;;;;;;683243;28;1161;-85
2022/01/11 01:16:03;;;;;;;;;;;20.90;40.00;;;;;;683033;29;851;-84
2022/01/11 01:16:23;;;;;;;;;;;20.90;39.90;;;;;;683559;28;1000;-82
2022/01/11 01:16:44;;;;;;;;;;;20.90;40.00;;;;;;685783;28;846;-86
2022/01/11 01:17:04;;;;;;;;;;;20.90;40.00;;;;;;685675;28;802;-86
2022/01/11 01:17:26;;;;;;;;;;;20.90;40.00;;;;;;685169;28;838;-81
2022/01/11 01:17:47;;;;;;;;;;;20.90;40.00;;;;;;683219;28;870;-86
2022/01/11 01:18:10;;;;;;;;;;;20.90;40.00;;;;;;683007;28;1611;-82
2022/01/11 01:18:33;;;;;;;;;;;20.90;39.90;;;;;;683000;29;815;-86
2022/01/11 01:18:54;;;;;;;;;;;20.80;39.90;;;;;;682900;29;811;-85
2022/01/11 01:19:14;;;;;;;;;;;20.80;39.80;;;;;;683046;29;933;-86
2022/01/11 01:19:35;;;;;;;;;;;20.90;39.90;;;;;;682955;29;843;-80
2022/01/11 01:19:55;;;;;;;;;;;20.90;39.90;;;;;;682990;29;891;-82
2022/01/11 01:20:16;;;;;;;;;;;20.90;39.90;;;;;;683180;29;816;-84
2022/01/11 01:20:37;;;;;;;;;;;20.80;40.00;;;;;;683175;28;1308;-85
2022/01/11 01:20:59;;;;;;;;;;;20.90;40.00;;;;;;683157;28;839;-86
2022/01/11 01:21:20;;;;;;;;;;;20.90;40.00;;;;;;683183;28;846;-85
2022/01/11 01:21:41;;;;;;;;;;;20.80;40.00;;;;;;683271;29;870;-83
2022/01/11 01:22:02;;;;;;;;;;;20.90;40.10;;;;;;682879;28;1356;-85
2022/01/11 01:22:23;;;;;;;;;;;20.80;40.10;;;;;;682979;29;902;-86
2022/01/11 01:22:43;;;;;;;;;;;20.90;40.10;;;;;;683215;29;1953;-85
2022/01/11 01:23:04;;;;;;;;;;;20.80;40.10;;;;;;682758;29;1646;-85
2022/01/11 01:23:24;;;;;;;;;;;20.90;40.10;;;;;;683031;29;816;-87
2022/01/11 01:23:45;;;;;;;;;;;20.80;40.10;;;;;;680735;29;1380;-83
2022/01/11 01:24:07;;;;;;;;;;;20.90;40.20;;;;;;680632;29;1340;-86
2022/01/11 01:24:27;;;;;;;;;;;20.90;40.30;;;;;;680284;29;755;-87
2022/01/11 01:24:48;;;;;;;;;;;20.80;40.20;;;;;;680431;29;851;-89
2022/01/11 01:25:09;;;;;;;;;;;20.80;40.10;;;;;;677996;29;923;-84
2022/01/11 01:25:29;;;;;;;;;;;20.80;40.10;;;;;;677526;29;1600;-87
2022/01/11 01:25:50;;;;;;;;;;;20.90;40.20;;;;;;678197;29;804;-81
2022/01/11 01:26:11;;;;;;;;;;;20.80;40.10;;;;;;680425;29;859;-80
2022/01/11 01:26:32;;;;;;;;;;;20.90;40.10;;;;;;680255;29;1213;-83
2022/01/11 01:26:52;;;;;;;;;;;20.80;40.10;;;;;;680616;28;1485;-85
2022/01/11 01:27:14;;;;;;;;;;;20.80;40.10;;;;;;683018;29;804;-82
2022/01/11 01:27:34;;;;;;;;;;;20.80;40.10;;;;;;682947;29;855;-80
2022/01/11 01:27:55;;;;;;;;;;;20.80;40.10;;;;;;682919;28;890;-87
2022/01/11 01:28:15;;;;;;;;;;;20.80;40.10;;;;;;683064;28;800;-80
2022/01/11 01:28:36;;;;;;;;;;;20.80;40.10;;;;;;683362;28;1273;-80
2022/01/11 01:28:59;;;;;;;;;;;20.90;40.20;;;;;;685610;28;885;-84
2022/01/11 01:29:20;;;;;;;;;;;20.80;40.10;;;;;;685561;28;931;-80
2022/01/11 01:29:41;;;;;;;;;;;20.80;40.10;;;;;;685651;28;1108;-81
2022/01/11 01:30:02;;;;;;;;;;;20.80;40.10;;;;;;685665;28;566;-87
2022/01/11 01:30:23;;;;;;;;;;;20.80;40.10;;;;;;685569;28;858;-85
2022/01/11 01:30:44;;;;;;;;;;;20.80;40.10;;;;;;685632;28;886;-86
2022/01/11 01:31:05;;;;;;;;;;;20.90;40.10;;;;;;685593;28;891;-86
2022/01/11 01:31:29;;;;;;;;;;;20.80;40.10;;;;;;685219;28;893;-83
2022/01/11 01:31:49;;;;;;;;;;;20.80;40.00;;;;;;683105;28;939;-85
2022/01/11 01:32:10;;;;;;;;;;;20.80;40.00;;;;;;683201;29;831;-84
2022/01/11 01:32:31;;;;;;;;;;;20.80;40.10;;;;;;683028;29;831;-81
2022/01/11 01:32:52;;;;;;;;;;;20.80;40.10;;;;;;683191;28;973;-87
2022/01/11 01:33:13;;;;;;;;;;;20.90;40.10;;;;;;683266;29;934;-82
2022/01/11 01:33:33;;;;;;;;;;;20.80;40.10;;;;;;683130;28;941;-86
2022/01/11 01:33:55;;;;;;;;;;;20.80;40.10;;;;;;683026;29;914;-81
2022/01/11 01:34:15;;;;;;;;;;;20.80;40.10;;;;;;683226;28;803;-86
2022/01/11 01:34:36;;;;;;;;;;;20.80;40.10;;;;;;683224;29;839;-86
2022/01/11 01:35:02;;;;;;;;;;;20.80;40.10;;;;;;683144;29;808;-86
2022/01/11 01:35:27;;;;;;;;;;;20.80;40.10;;;;;;683183;28;854;-87
2022/01/11 01:35:54;;;;;;;;;;;20.80;40.00;;;;;;683118;28;839;-86
2022/01/11 01:36:15;;;;;;;;;;;20.80;40.10;;;;;;683234;28;850;-85
2022/01/11 01:36:36;;;;;;;;;;;20.80;40.10;;;;;;683227;28;1029;-85
2022/01/11 01:36:56;;;;;;;;;;;20.80;40.10;;;;;;683151;28;850;-83
2022/01/11 01:37:17;;;;;;;;;;;20.80;40.10;;;;;;683109;29;820;-83
2022/01/11 01:37:37;;;;;;;;;;;20.80;40.10;;;;;;683255;29;910;-86
2022/01/11 01:37:58;;;;;;;;;;;20.80;40.10;;;;;;682901;29;1626;-81
2022/01/11 01:38:23;;;;;;;;;;;20.80;40.10;;;;;;680431;28;1379;-84
2022/01/11 01:38:43;;;;;;;;;;;20.80;40.10;;;;;;677652;29;844;-87
2022/01/11 01:39:04;;;;;;;;;;;20.80;40.10;;;;;;677690;29;899;-83
2022/01/11 01:39:25;;;;;;;;;;;20.80;40.20;;;;;;677744;29;827;-82
2022/01/11 01:39:46;;;;;;;;;;;20.80;40.30;;;;;;678779;29;1364;-82
2022/01/11 01:40:07;;;;;;;;;;;20.80;40.20;;;;;;681389;29;733;-85
2022/01/11 01:40:35;;;;;;;;;;;20.80;40.30;;;;;;683060;29;859;-85
2022/01/11 01:41:01;;;;;;;;;;;20.80;40.30;;;;;;682824;29;871;-86
2022/01/11 01:41:22;;;;;;;;;;;20.80;40.30;;;;;;682860;29;859;-86
2022/01/11 01:41:45;;;;;;;;;;;20.80;40.30;;;;;;682376;29;1246;-84
2022/01/11 01:42:07;;;;;;;;;;;20.80;40.40;;;;;;682792;29;947;-86
2022/01/11 01:42:30;;;;;;;;;;;20.80;40.30;;;;;;682871;28;882;-87
2022/01/11 01:42:51;;;;;;;;;;;20.80;40.30;;;;;;682909;29;871;-84
2022/01/11 01:43:13;;;;;;;;;;;20.80;40.30;;;;;;682847;28;1165;-79
2022/01/11 01:43:34;;;;;;;;;;;20.80;40.30;;;;;;681527;28;1142;-85
2022/01/11 01:43:56;;;;;;;;;;;20.80;40.30;;;;;;682870;29;850;-82
2022/01/11 01:44:17;;;;;;;;;;;20.80;40.30;;;;;;682852;28;773;-86
2022/01/11 01:44:38;;;;;;;;;;;20.80;40.30;;;;;;683053;29;910;-86
2022/01/11 01:45:01;;;;;;;;;;;20.80;40.40;;;;;;682885;29;838;-86
2022/01/11 01:45:24;;;;;;;;;;;20.80;40.40;;;;;;681179;29;1162;-86
2022/01/11 01:45:44;;;;;;;;;;;20.80;40.30;;;;;;683143;29;831;-83
2022/01/11 01:46:05;;;;;;;;;;;20.80;40.40;;;;;;682991;29;906;-86
2022/01/11 01:46:26;;;;;;;;;;;20.80;40.30;;;;;;682933;29;855;-87
2022/01/11 01:46:46;;;;;;;;;;;20.80;40.30;;;;;;682944;29;859;-89
2022/01/11 01:47:08;;;;;;;;;;;20.80;40.40;;;;;;682995;29;871;-90
2022/01/11 01:47:28;;;;;;;;;;;20.80;40.40;;;;;;685583;28;1266;-88
2022/01/11 01:47:53;;;;;;;;;;;20.80;40.40;;;;;;685454;28;937;-88
2022/01/11 01:48:15;;;;;;;;;;;20.80;40.40;;;;;;685618;28;897;-83
2022/01/11 01:48:36;;;;;;;;;;;20.80;40.30;;;;;;682879;28;1303;-86
2022/01/11 01:48:59;;;;;;;;;;;20.80;40.30;;;;;;682942;29;882;-86
2022/01/11 01:49:22;;;;;;;;;;;20.80;40.30;;;;;;680121;29;1229;-85
2022/01/11 01:49:43;;;;;;;;;;;20.80;40.30;;;;;;680236;29;1333;-85
2022/01/11 01:50:05;;;;;;;;;;;20.80;40.30;;;;;;680302;29;859;-83
2022/01/11 01:50:26;;;;;;;;;;;20.80;40.30;;;;;;681554;29;871;-86
2022/01/11 01:50:48;;;;;;;;;;;20.80;40.30;;;;;;682815;28;1300;-80
2022/01/11 01:51:09;;;;;;;;;;;20.80;40.30;;;;;;684022;28;890;-84
2022/01/11 01:51:30;;;;;;;;;;;20.80;40.40;;;;;;685530;28;858;-83
2022/01/11 01:51:50;;;;;;;;;;;20.80;40.40;;;;;;685597;28;847;-87
2022/01/11 01:52:14;;;;;;;;;;;20.80;40.40;;;;;;685629;28;890;-87
2022/01/11 01:52:34;;;;;;;;;;;20.80;40.40;;;;;;684902;28;928;-81
2022/01/11 01:52:56;;;;;;;;;;;20.80;40.30;;;;;;682809;28;1233;-84
2022/01/11 01:53:17;;;;;;;;;;;20.80;40.30;;;;;;682919;29;859;-86
2022/01/11 01:53:39;;;;;;;;;;;20.80;40.20;;;;;;683136;29;870;-85
2022/01/11 01:53:59;;;;;;;;;;;20.80;40.30;;;;;;683006;29;767;-88
2022/01/11 01:54:23;;;;;;;;;;;20.80;40.30;;;;;;682944;29;966;-86
2022/01/11 01:54:43;;;;;;;;;;;20.80;40.30;;;;;;681281;29;833;-88
2022/01/11 01:55:04;;;;;;;;;;;20.80;40.30;;;;;;682874;29;807;-88
2022/01/11 01:55:25;;;;;;;;;;;20.80;40.30;;;;;;682873;28;989;-88
2022/01/11 01:55:47;;;;;;;;;;;20.80;40.20;;;;;;682918;28;859;-87
2022/01/11 01:56:07;;;;;;;;;;;20.80;40.30;;;;;;683014;29;934;-88
2022/01/11 01:56:28;;;;;;;;;;;20.80;40.30;;;;;;683021;29;819;-88
2022/01/11 01:56:49;;;;;;;;;;;20.80;40.30;;;;;;683154;28;871;-88
2022/01/11 01:57:09;;;;;;;;;;;20.80;40.30;;;;;;683234;28;803;-88
2022/01/11 01:57:30;;;;;;;;;;;20.80;40.30;;;;;;683102;28;756;-87
2022/01/11 01:57:51;;;;;;;;;;;20.80;40.30;;;;;;683059;28;898;-88
2022/01/11 01:58:12;;;;;;;;;;;20.80;40.30;;;;;;685633;28;1314;-87
2022/01/11 01:58:33;;;;;;;;;;;20.70;40.20;;;;;;685566;28;886;-87
2022/01/11 01:58:54;;;;;;;;;;;20.80;40.30;;;;;;685590;28;934;-88
2022/01/11 01:59:15;;;;;;;;;;;20.80;40.30;;;;;;685720;28;799;-87
2022/01/11 01:59:36;;;;;;;;;;;20.80;40.30;;;;;;685575;28;930;-88
2022/01/11 01:59:56;;;;;;;;;;;20.80;40.30;;;;;;685091;28;807;-88
2022/01/11 02:00:18;;;;;;;;;;;20.80;40.30;;;;;;683016;28;855;-87
2022/01/11 02:00:45;;;;;;;;;;;20.70;40.20;;;;;;683306;28;847;-87
2022/01/11 02:01:06;;;;;;;;;;;20.70;40.30;;;;;;682896;29;1221;-88
2022/01/11 02:01:27;;;;;;;;;;;20.80;40.30;;;;;;680424;29;851;-88
2022/01/11 02:01:48;;;;;;;;;;;20.80;40.30;;;;;;680333;29;804;-88
2022/01/11 02:02:11;;;;;;;;;;;20.80;40.30;;;;;;678012;29;1459;-88
2022/01/11 02:02:31;;;;;;;;;;;20.80;40.30;;;;;;677626;29;1962;-88
2022/01/11 02:03:01;;;;;;;;;;;20.80;40.30;;;;;;678220;29;907;-88
2022/01/11 02:03:26;;;;;;;;;;;20.70;40.30;;;;;;679568;29;1210;-89
2022/01/11 02:03:47;;;;;;;;;;;20.80;40.30;;;;;;680330;29;867;-87
2022/01/11 02:04:08;;;;;;;;;;;20.70;40.30;;;;;;682598;28;899;-88
2022/01/11 02:04:29;;;;;;;;;;;20.80;40.20;;;;;;682953;29;784;-87
2022/01/11 02:04:50;;;;;;;;;;;20.70;40.20;;;;;;682984;29;820;-88
2022/01/11 02:05:11;;;;;;;;;;;20.70;40.20;;;;;;683018;29;864;-88
2022/01/11 02:05:31;;;;;;;;;;;20.80;40.20;;;;;;683132;29;829;-88
2022/01/11 02:05:53;;;;;;;;;;;20.70;40.30;;;;;;683082;28;941;-89
2022/01/11 02:06:15;;;;;;;;;;;20.80;40.30;;;;;;683248;28;827;-88
2022/01/11 02:06:36;;;;;;;;;;;20.70;40.30;;;;;;683058;29;942;-87
2022/01/11 02:06:57;;;;;;;;;;;20.70;40.20;;;;;;683119;28;819;-88
2022/01/11 02:07:18;;;;;;;;;;;20.70;40.30;;;;;;683124;29;807;-89
2022/01/11 02:07:38;;;;;;;;;;;20.70;40.30;;;;;;683225;28;906;-88
2022/01/11 02:07:59;;;;;;;;;;;20.70;40.30;;;;;;683071;28;969;-89
2022/01/11 02:08:19;;;;;;;;;;;20.70;40.30;;;;;;683073;29;871;-89
2022/01/11 02:08:42;;;;;;;;;;;20.80;40.30;;;;;;683280;29;879;-88
2022/01/11 02:09:03;;;;;;;;;;;20.70;40.30;;;;;;683037;28;871;-90
2022/01/11 02:09:23;;;;;;;;;;;20.70;40.20;;;;;;683040;29;799;-87
2022/01/11 02:09:44;;;;;;;;;;;20.70;40.20;;;;;;683184;29;887;-89
2022/01/11 02:10:05;;;;;;;;;;;20.70;40.20;;;;;;683152;28;870;-83
2022/01/11 02:10:26;;;;;;;;;;;20.70;40.20;;;;;;683031;29;954;-87
2022/01/11 02:10:46;;;;;;;;;;;20.70;40.20;;;;;;683138;28;950;-87
2022/01/11 02:11:07;;;;;;;;;;;20.80;40.30;;;;;;683228;29;863;-87
2022/01/11 02:11:28;;;;;;;;;;;20.70;40.30;;;;;;683024;29;895;-88
2022/01/11 02:11:48;;;;;;;;;;;20.70;40.30;;;;;;683170;29;820;-88
2022/01/11 02:12:09;;;;;;;;;;;20.70;40.30;;;;;;685486;28;1544;-89
2022/01/11 02:12:30;;;;;;;;;;;20.70;40.20;;;;;;685538;28;910;-88
2022/01/11 02:12:51;;;;;;;;;;;20.70;40.30;;;;;;685805;28;1115;-88
2022/01/11 02:13:12;;;;;;;;;;;20.70;40.30;;;;;;685654;28;907;-88
2022/01/11 02:13:32;;;;;;;;;;;20.80;40.30;;;;;;685568;28;859;-87
2022/01/11 02:13:53;;;;;;;;;;;20.70;40.20;;;;;;685662;28;807;-87
2022/01/11 02:14:14;;;;;;;;;;;20.70;40.30;;;;;;685664;28;930;-88
2022/01/11 02:14:34;;;;;;;;;;;20.70;40.20;;;;;;685272;28;795;-83
2022/01/11 02:14:55;;;;;;;;;;;20.70;40.10;;;;;;682696;28;1425;-87